< < Back
Terminal Aerodrome Forecast


Current Version              Previous Versions:   1  2  3  4  5  6  7  8  9  

Terminal Aerodrome Forecast

009
FTUS44 KBMX 300520
TAFBHM
TAF
KBHM 300520Z 3006/0106 03003KT P6SM SKC
     FM301800 34009KT P6SM SKC
     FM010000 34004KT P6SM SKC=

Latest METAR

006
SAUS70 KWBC 010800 RRJ
MTRBHM
METAR KBHM 010753Z 00000KT 10SM CLR 20/14 A2999 RMK AO2 SLP147
T02000144


USA.gov is the U.S. government's official web portal to all federal, state and local government web resources and services.